Adrian, North Dakota
Current Conditions -  °F | °C
As of 10:56 AM on Saturday 25 Oct 2014 (Local Time) from KJMS Reporting Station
Few Clouds Few Clouds  
Wind Chill: 10°   Ceiling: Unl
Heat Index: 10°   Visibility: 10mi
Dew Point:   Wind: 8mph
Humidity: 57%   Direction: 290°WNW
Pressure: 30.14"   Gusts: NA
Location:  46.6526°N, 98.6214°W
Report Text: KJMS 251556Z AUTO 29007KT 10SM FEW100 10/02 A3014 RMK AO2 SLP215 T01000017
Loading
Personal Weather Stations






























Interactive Weather Map New forecast layout! Learn more

10-Day Weather Forecast

Advertisements
Track Severe Weather on mobile